sensor_id;sensor_type;location;lat;lon;timestamp;P1;durP1;ratioP1;P2;durP2;ratioP2
74626;SDS011;63132;52.268;5.192;2022-12-18T00:01:00;106.05;;;47.20;;
74626;SDS011;63132;52.268;5.192;2022-12-18T00:03:30;110.20;;;46.58;;
74626;SDS011;63132;52.268;5.192;2022-12-18T00:05:57;109.07;;;45.67;;
74626;SDS011;63132;52.268;5.192;2022-12-18T00:08:22;110.07;;;46.08;;
74626;SDS011;63132;52.268;5.192;2022-12-18T00:10:48;115.28;;;49.15;;
74626;SDS011;63132;52.268;5.192;2022-12-18T00:13:13;116.63;;;49.13;;
74626;SDS011;63132;52.268;5.192;2022-12-18T00:15:39;113.17;;;47.17;;
74626;SDS011;63132;52.268;5.192;2022-12-18T00:18:04;110.70;;;48.57;;
74626;SDS011;63132;52.268;5.192;2022-12-18T00:20:30;98.78;;;46.83;;
74626;SDS011;63132;52.268;5.192;2022-12-18T00:23:00;102.70;;;46.17;;
74626;SDS011;63132;52.268;5.192;2022-12-18T00:25:25;97.50;;;45.45;;
74626;SDS011;63132;52.268;5.192;2022-12-18T00:27:50;97.83;;;44.43;;
74626;SDS011;63132;52.268;5.192;2022-12-18T00:30:16;107.10;;;46.00;;
74626;SDS011;63132;52.268;5.192;2022-12-18T00:32:41;97.87;;;44.90;;
74626;SDS011;63132;52.268;5.192;2022-12-18T00:35:07;97.43;;;44.33;;
74626;SDS011;63132;52.268;5.192;2022-12-18T00:37:35;97.37;;;44.37;;
74626;SDS011;63132;52.268;5.192;2022-12-18T00:40:01;99.93;;;44.08;;
74626;SDS011;63132;52.268;5.192;2022-12-18T00:42:27;108.07;;;45.85;;
74626;SDS011;63132;52.268;5.192;2022-12-18T00:45:11;108.85;;;46.72;;
74626;SDS011;63132;52.268;5.192;2022-12-18T00:47:36;96.93;;;42.63;;
74626;SDS011;63132;52.268;5.192;2022-12-18T00:50:02;90.60;;;43.33;;
74626;SDS011;63132;52.268;5.192;2022-12-18T00:52:27;95.67;;;42.80;;
74626;SDS011;63132;52.268;5.192;2022-12-18T00:54:53;92.43;;;43.13;;
74626;SDS011;63132;52.268;5.192;2022-12-18T00:57:18;91.93;;;42.40;;
74626;SDS011;63132;52.268;5.192;2022-12-18T00:59:43;94.65;;;43.50;;
74626;SDS011;63132;52.268;5.192;2022-12-18T01:02:09;89.53;;;41.67;;
74626;SDS011;63132;52.268;5.192;2022-12-18T01:04:34;91.83;;;42.90;;
74626;SDS011;63132;52.268;5.192;2022-12-18T01:06:59;87.63;;;40.77;;
74626;SDS011;63132;52.268;5.192;2022-12-18T01:09:25;89.53;;;41.10;;
74626;SDS011;63132;52.268;5.192;2022-12-18T01:11:51;84.47;;;40.40;;
74626;SDS011;63132;52.268;5.192;2022-12-18T01:14:16;81.83;;;38.43;;
74626;SDS011;63132;52.268;5.192;2022-12-18T01:16:41;85.17;;;39.50;;
74626;SDS011;63132;52.268;5.192;2022-12-18T01:19:07;83.50;;;40.23;;
74626;SDS011;63132;52.268;5.192;2022-12-18T01:21:32;90.93;;;42.23;;
74626;SDS011;63132;52.268;5.192;2022-12-18T01:23:58;87.55;;;40.53;;
74626;SDS011;63132;52.268;5.192;2022-12-18T01:26:24;82.50;;;39.60;;
74626;SDS011;63132;52.268;5.192;2022-12-18T01:28:50;85.03;;;41.05;;
74626;SDS011;63132;52.268;5.192;2022-12-18T01:31:17;85.80;;;40.75;;
74626;SDS011;63132;52.268;5.192;2022-12-18T01:33:45;89.70;;;42.45;;
74626;SDS011;63132;52.268;5.192;2022-12-18T01:36:16;97.45;;;42.28;;
74626;SDS011;63132;52.268;5.192;2022-12-18T01:38:49;88.47;;;41.83;;
74626;SDS011;63132;52.268;5.192;2022-12-18T01:41:16;90.93;;;42.45;;
74626;SDS011;63132;52.268;5.192;2022-12-18T01:43:45;95.82;;;41.88;;
74626;SDS011;63132;52.268;5.192;2022-12-18T01:46:17;90.72;;;41.25;;
74626;SDS011;63132;52.268;5.192;2022-12-18T01:48:44;94.47;;;42.40;;
74626;SDS011;63132;52.268;5.192;2022-12-18T01:51:12;96.55;;;42.33;;
74626;SDS011;63132;52.268;5.192;2022-12-18T01:53:39;96.90;;;42.70;;
74626;SDS011;63132;52.268;5.192;2022-12-18T01:56:06;92.53;;;42.10;;
74626;SDS011;63132;52.268;5.192;2022-12-18T01:58:35;87.90;;;42.00;;
74626;SDS011;63132;52.268;5.192;2022-12-18T02:01:04;92.30;;;42.67;;
74626;SDS011;63132;52.268;5.192;2022-12-18T02:03:30;89.65;;;42.63;;
74626;SDS011;63132;52.268;5.192;2022-12-18T02:09:08;96.55;;;43.97;;
74626;SDS011;63132;52.268;5.192;2022-12-18T02:11:42;93.20;;;43.35;;
74626;SDS011;63132;52.268;5.192;2022-12-18T02:27:50;91.28;;;39.97;;
74626;SDS011;63132;52.268;5.192;2022-12-18T02:30:17;88.10;;;40.83;;
74626;SDS011;63132;52.268;5.192;2022-12-18T02:32:45;88.03;;;40.58;;
74626;SDS011;63132;52.268;5.192;2022-12-18T02:35:16;89.70;;;42.40;;
74626;SDS011;63132;52.268;5.192;2022-12-18T02:37:47;92.28;;;41.67;;
74626;SDS011;63132;52.268;5.192;2022-12-18T02:40:13;91.30;;;41.25;;
74626;SDS011;63132;52.268;5.192;2022-12-18T02:42:40;91.70;;;42.35;;
74626;SDS011;63132;52.268;5.192;2022-12-18T02:45:06;86.80;;;40.10;;
74626;SDS011;63132;52.268;5.192;2022-12-18T02:47:32;95.72;;;42.42;;
74626;SDS011;63132;52.268;5.192;2022-12-18T02:50:08;94.05;;;42.92;;
74626;SDS011;63132;52.268;5.192;2022-12-18T02:55:28;97.38;;;43.70;;
74626;SDS011;63132;52.268;5.192;2022-12-18T03:00:28;90.93;;;42.60;;
74626;SDS011;63132;52.268;5.192;2022-12-18T03:03:05;93.43;;;41.97;;
74626;SDS011;63132;52.268;5.192;2022-12-18T03:05:39;97.43;;;43.55;;
74626;SDS011;63132;52.268;5.192;2022-12-18T03:08:20;90.95;;;41.55;;
74626;SDS011;63132;52.268;5.192;2022-12-18T03:10:50;91.80;;;42.05;;
74626;SDS011;63132;52.268;5.192;2022-12-18T03:13:23;95.65;;;41.65;;
74626;SDS011;63132;52.268;5.192;2022-12-18T03:15:54;92.28;;;41.75;;
74626;SDS011;63132;52.268;5.192;2022-12-18T03:18:26;93.30;;;43.63;;
74626;SDS011;63132;52.268;5.192;2022-12-18T03:20:58;93.18;;;41.63;;
74626;SDS011;63132;52.268;5.192;2022-12-18T03:23:29;99.95;;;45.42;;
74626;SDS011;63132;52.268;5.192;2022-12-18T03:26:06;101.93;;;43.88;;
74626;SDS011;63132;52.268;5.192;2022-12-18T03:28:42;98.35;;;43.35;;
74626;SDS011;63132;52.268;5.192;2022-12-18T03:31:12;105.03;;;45.25;;
74626;SDS011;63132;52.268;5.192;2022-12-18T03:36:18;99.47;;;43.05;;
74626;SDS011;63132;52.268;5.192;2022-12-18T03:38:44;109.20;;;46.83;;
74626;SDS011;63132;52.268;5.192;2022-12-18T03:46:47;111.35;;;47.47;;
74626;SDS011;63132;52.268;5.192;2022-12-18T03:49:58;100.25;;;44.90;;
74626;SDS011;63132;52.268;5.192;2022-12-18T03:52:46;102.65;;;45.20;;
74626;SDS011;63132;52.268;5.192;2022-12-18T03:55:17;105.20;;;45.70;;
74626;SDS011;63132;52.268;5.192;2022-12-18T03:57:44;95.28;;;43.17;;
74626;SDS011;63132;52.268;5.192;2022-12-18T04:00:13;102.95;;;46.00;;
74626;SDS011;63132;52.268;5.192;2022-12-18T04:02:51;105.63;;;46.42;;
74626;SDS011;63132;52.268;5.192;2022-12-18T04:05:18;96.43;;;44.10;;
74626;SDS011;63132;52.268;5.192;2022-12-18T04:07:45;94.15;;;43.35;;
74626;SDS011;63132;52.268;5.192;2022-12-18T04:10:12;90.03;;;43.45;;
74626;SDS011;63132;52.268;5.192;2022-12-18T04:12:39;95.20;;;45.13;;
74626;SDS011;63132;52.268;5.192;2022-12-18T04:15:05;93.47;;;44.43;;
74626;SDS011;63132;52.268;5.192;2022-12-18T04:17:31;90.23;;;41.63;;
74626;SDS011;63132;52.268;5.192;2022-12-18T04:19:57;89.70;;;42.07;;
74626;SDS011;63132;52.268;5.192;2022-12-18T04:22:22;92.13;;;42.97;;
74626;SDS011;63132;52.268;5.192;2022-12-18T04:24:48;89.90;;;42.17;;
74626;SDS011;63132;52.268;5.192;2022-12-18T04:27:13;88.37;;;42.30;;
74626;SDS011;63132;52.268;5.192;2022-12-18T04:29:39;83.20;;;40.37;;
74626;SDS011;63132;52.268;5.192;2022-12-18T04:32:04;89.93;;;40.60;;
74626;SDS011;63132;52.268;5.192;2022-12-18T04:34:29;88.13;;;41.30;;
74626;SDS011;63132;52.268;5.192;2022-12-18T04:36:55;83.63;;;40.83;;
74626;SDS011;63132;52.268;5.192;2022-12-18T04:39:21;81.70;;;40.33;;
74626;SDS011;63132;52.268;5.192;2022-12-18T04:41:46;80.13;;;39.77;;
74626;SDS011;63132;52.268;5.192;2022-12-18T04:44:12;81.43;;;39.30;;
74626;SDS011;63132;52.268;5.192;2022-12-18T04:46:37;80.47;;;38.67;;
74626;SDS011;63132;52.268;5.192;2022-12-18T04:49:02;75.83;;;37.47;;
74626;SDS011;63132;52.268;5.192;2022-12-18T04:51:28;83.38;;;40.05;;
74626;SDS011;63132;52.268;5.192;2022-12-18T04:53:53;80.22;;;38.80;;
74626;SDS011;63132;52.268;5.192;2022-12-18T04:56:18;74.80;;;36.63;;
74626;SDS011;63132;52.268;5.192;2022-12-18T04:58:44;72.77;;;36.03;;
74626;SDS011;63132;52.268;5.192;2022-12-18T05:01:10;81.47;;;37.90;;
74626;SDS011;63132;52.268;5.192;2022-12-18T05:03:37;83.43;;;39.22;;
74626;SDS011;63132;52.268;5.192;2022-12-18T05:06:02;75.93;;;37.07;;
74626;SDS011;63132;52.268;5.192;2022-12-18T05:08:29;71.82;;;35.95;;
74626;SDS011;63132;52.268;5.192;2022-12-18T05:11:13;73.28;;;37.63;;
74626;SDS011;63132;52.268;5.192;2022-12-18T05:13:40;78.40;;;37.30;;
74626;SDS011;63132;52.268;5.192;2022-12-18T05:16:07;73.60;;;35.47;;
74626;SDS011;63132;52.268;5.192;2022-12-18T05:18:33;71.20;;;35.55;;
74626;SDS011;63132;52.268;5.192;2022-12-18T05:20:58;66.60;;;34.13;;
74626;SDS011;63132;52.268;5.192;2022-12-18T05:23:24;76.28;;;36.25;;
74626;SDS011;63132;52.268;5.192;2022-12-18T05:26:00;70.32;;;35.08;;
74626;SDS011;63132;52.268;5.192;2022-12-18T05:28:27;71.57;;;34.60;;
74626;SDS011;63132;52.268;5.192;2022-12-18T05:30:55;70.50;;;35.17;;
74626;SDS011;63132;52.268;5.192;2022-12-18T05:33:23;71.22;;;35.55;;
74626;SDS011;63132;52.268;5.192;2022-12-18T05:35:50;65.40;;;33.53;;
74626;SDS011;63132;52.268;5.192;2022-12-18T05:38:20;68.35;;;33.90;;
74626;SDS011;63132;52.268;5.192;2022-12-18T05:40:47;65.57;;;32.60;;
74626;SDS011;63132;52.268;5.192;2022-12-18T05:43:13;68.03;;;32.15;;
74626;SDS011;63132;52.268;5.192;2022-12-18T05:45:38;67.20;;;33.47;;
74626;SDS011;63132;52.268;5.192;2022-12-18T05:48:06;69.82;;;33.42;;
74626;SDS011;63132;52.268;5.192;2022-12-18T05:50:35;67.50;;;32.10;;
74626;SDS011;63132;52.268;5.192;2022-12-18T05:53:05;70.05;;;34.25;;
74626;SDS011;63132;52.268;5.192;2022-12-18T05:55:37;63.70;;;31.73;;
74626;SDS011;63132;52.268;5.192;2022-12-18T05:58:04;66.53;;;32.50;;
74626;SDS011;63132;52.268;5.192;2022-12-18T06:00:30;61.07;;;31.37;;
74626;SDS011;63132;52.268;5.192;2022-12-18T06:02:57;61.72;;;31.42;;
74626;SDS011;63132;52.268;5.192;2022-12-18T06:05:22;59.28;;;30.77;;
74626;SDS011;63132;52.268;5.192;2022-12-18T06:07:48;57.37;;;30.47;;
74626;SDS011;63132;52.268;5.192;2022-12-18T06:10:13;57.77;;;30.20;;
74626;SDS011;63132;52.268;5.192;2022-12-18T06:12:38;54.97;;;29.15;;
74626;SDS011;63132;52.268;5.192;2022-12-18T06:15:04;58.25;;;29.08;;
74626;SDS011;63132;52.268;5.192;2022-12-18T06:17:30;58.42;;;30.27;;
74626;SDS011;63132;52.268;5.192;2022-12-18T06:19:56;57.13;;;29.30;;
74626;SDS011;63132;52.268;5.192;2022-12-18T06:22:22;57.57;;;28.57;;
74626;SDS011;63132;52.268;5.192;2022-12-18T06:24:48;54.20;;;28.95;;
74626;SDS011;63132;52.268;5.192;2022-12-18T06:27:13;56.55;;;28.95;;
74626;SDS011;63132;52.268;5.192;2022-12-18T06:29:39;54.27;;;28.77;;
74626;SDS011;63132;52.268;5.192;2022-12-18T06:32:04;59.93;;;31.10;;
74626;SDS011;63132;52.268;5.192;2022-12-18T06:34:31;54.20;;;28.20;;
74626;SDS011;63132;52.268;5.192;2022-12-18T06:36:57;57.67;;;29.33;;
74626;SDS011;63132;52.268;5.192;2022-12-18T06:39:22;56.13;;;29.67;;
74626;SDS011;63132;52.268;5.192;2022-12-18T06:41:48;55.87;;;28.43;;
74626;SDS011;63132;52.268;5.192;2022-12-18T06:44:13;56.17;;;28.27;;
74626;SDS011;63132;52.268;5.192;2022-12-18T06:46:38;52.53;;;26.80;;
74626;SDS011;63132;52.268;5.192;2022-12-18T06:49:04;54.00;;;27.98;;
74626;SDS011;63132;52.268;5.192;2022-12-18T06:51:29;53.28;;;27.65;;
74626;SDS011;63132;52.268;5.192;2022-12-18T06:53:55;49.03;;;26.35;;
74626;SDS011;63132;52.268;5.192;2022-12-18T06:56:20;50.53;;;26.65;;
74626;SDS011;63132;52.268;5.192;2022-12-18T06:58:46;48.95;;;26.13;;
74626;SDS011;63132;52.268;5.192;2022-12-18T07:01:12;48.13;;;26.77;;
74626;SDS011;63132;52.268;5.192;2022-12-18T07:03:38;48.63;;;26.37;;
74626;SDS011;63132;52.268;5.192;2022-12-18T07:06:04;54.67;;;28.13;;
74626;SDS011;63132;52.268;5.192;2022-12-18T07:08:31;49.25;;;26.17;;
74626;SDS011;63132;52.268;5.192;2022-12-18T07:10:57;54.10;;;27.42;;
74626;SDS011;63132;52.268;5.192;2022-12-18T07:13:22;49.17;;;26.13;;
74626;SDS011;63132;52.268;5.192;2022-12-18T07:15:48;49.57;;;26.53;;
74626;SDS011;63132;52.268;5.192;2022-12-18T07:18:13;48.63;;;26.77;;
74626;SDS011;63132;52.268;5.192;2022-12-18T07:20:38;49.40;;;26.87;;
74626;SDS011;63132;52.268;5.192;2022-12-18T07:23:04;49.73;;;26.43;;
74626;SDS011;63132;52.268;5.192;2022-12-18T07:25:30;46.47;;;26.53;;
74626;SDS011;63132;52.268;5.192;2022-12-18T07:27:59;45.33;;;25.50;;
74626;SDS011;63132;52.268;5.192;2022-12-18T07:30:24;44.00;;;24.47;;
74626;SDS011;63132;52.268;5.192;2022-12-18T07:32:50;45.33;;;24.73;;
74626;SDS011;63132;52.268;5.192;2022-12-18T07:35:15;46.93;;;25.87;;
74626;SDS011;63132;52.268;5.192;2022-12-18T07:37:40;44.30;;;24.40;;
74626;SDS011;63132;52.268;5.192;2022-12-18T07:40:06;43.90;;;24.48;;
74626;SDS011;63132;52.268;5.192;2022-12-18T07:42:32;47.00;;;25.27;;
74626;SDS011;63132;52.268;5.192;2022-12-18T07:44:58;44.50;;;25.93;;
74626;SDS011;63132;52.268;5.192;2022-12-18T07:47:24;44.78;;;26.05;;
74626;SDS011;63132;52.268;5.192;2022-12-18T07:49:50;46.60;;;26.17;;
74626;SDS011;63132;52.268;5.192;2022-12-18T07:52:15;46.23;;;26.77;;
74626;SDS011;63132;52.268;5.192;2022-12-18T07:54:41;46.77;;;25.47;;
74626;SDS011;63132;52.268;5.192;2022-12-18T07:57:07;46.80;;;25.10;;
74626;SDS011;63132;52.268;5.192;2022-12-18T07:59:32;43.90;;;24.83;;
74626;SDS011;63132;52.268;5.192;2022-12-18T08:01:58;44.45;;;25.80;;
74626;SDS011;63132;52.268;5.192;2022-12-18T08:04:23;47.10;;;25.73;;
74626;SDS011;63132;52.268;5.192;2022-12-18T08:06:49;42.40;;;25.27;;
74626;SDS011;63132;52.268;5.192;2022-12-18T08:09:15;43.27;;;24.87;;
74626;SDS011;63132;52.268;5.192;2022-12-18T08:11:40;41.90;;;25.53;;
74626;SDS011;63132;52.268;5.192;2022-12-18T08:14:06;45.80;;;26.70;;
74626;SDS011;63132;52.268;5.192;2022-12-18T08:16:31;47.50;;;26.07;;
74626;SDS011;63132;52.268;5.192;2022-12-18T08:18:56;44.07;;;25.20;;
74626;SDS011;63132;52.268;5.192;2022-12-18T08:21:26;43.83;;;25.50;;
74626;SDS011;63132;52.268;5.192;2022-12-18T08:23:54;42.07;;;25.27;;
74626;SDS011;63132;52.268;5.192;2022-12-18T08:26:20;43.58;;;24.48;;
74626;SDS011;63132;52.268;5.192;2022-12-18T08:28:46;42.15;;;25.42;;
74626;SDS011;63132;52.268;5.192;2022-12-18T08:31:12;43.28;;;25.02;;
74626;SDS011;63132;52.268;5.192;2022-12-18T08:33:38;42.70;;;25.13;;
74626;SDS011;63132;52.268;5.192;2022-12-18T08:36:05;42.17;;;24.33;;
74626;SDS011;63132;52.268;5.192;2022-12-18T08:38:31;41.78;;;24.73;;
74626;SDS011;63132;52.268;5.192;2022-12-18T08:41:01;41.97;;;24.20;;
74626;SDS011;63132;52.268;5.192;2022-12-18T08:43:28;43.80;;;25.23;;
74626;SDS011;63132;52.268;5.192;2022-12-18T08:46:12;42.35;;;24.77;;
74626;SDS011;63132;52.268;5.192;2022-12-18T08:48:37;42.30;;;26.03;;
74626;SDS011;63132;52.268;5.192;2022-12-18T08:51:03;39.77;;;24.70;;
74626;SDS011;63132;52.268;5.192;2022-12-18T08:53:28;39.87;;;23.77;;
74626;SDS011;63132;52.268;5.192;2022-12-18T08:55:54;43.93;;;25.27;;
74626;SDS011;63132;52.268;5.192;2022-12-18T08:58:21;36.55;;;23.75;;
74626;SDS011;63132;52.268;5.192;2022-12-18T09:00:46;44.67;;;25.65;;
74626;SDS011;63132;52.268;5.192;2022-12-18T09:03:12;41.75;;;24.55;;
74626;SDS011;63132;52.268;5.192;2022-12-18T09:05:39;40.63;;;24.40;;
74626;SDS011;63132;52.268;5.192;2022-12-18T09:08:05;41.08;;;24.90;;
74626;SDS011;63132;52.268;5.192;2022-12-18T09:10:30;42.03;;;25.23;;
74626;SDS011;63132;52.268;5.192;2022-12-18T09:12:56;40.80;;;25.00;;
74626;SDS011;63132;52.268;5.192;2022-12-18T09:15:22;41.23;;;24.20;;
74626;SDS011;63132;52.268;5.192;2022-12-18T09:17:47;41.73;;;24.80;;
74626;SDS011;63132;52.268;5.192;2022-12-18T09:20:14;39.08;;;23.58;;
74626;SDS011;63132;52.268;5.192;2022-12-18T09:22:40;39.00;;;23.88;;
74626;SDS011;63132;52.268;5.192;2022-12-18T09:25:06;37.60;;;23.73;;
74626;SDS011;63132;52.268;5.192;2022-12-18T09:27:33;37.85;;;23.55;;
74626;SDS011;63132;52.268;5.192;2022-12-18T09:29:58;40.15;;;24.90;;
74626;SDS011;63132;52.268;5.192;2022-12-18T09:32:24;40.00;;;23.63;;
74626;SDS011;63132;52.268;5.192;2022-12-18T09:34:49;37.38;;;22.73;;
74626;SDS011;63132;52.268;5.192;2022-12-18T09:37:15;36.35;;;23.50;;
74626;SDS011;63132;52.268;5.192;2022-12-18T09:39:40;38.47;;;24.30;;
74626;SDS011;63132;52.268;5.192;2022-12-18T09:42:05;37.13;;;23.10;;
74626;SDS011;63132;52.268;5.192;2022-12-18T09:44:39;36.83;;;22.95;;
74626;SDS011;63132;52.268;5.192;2022-12-18T09:50:04;37.97;;;23.73;;
74626;SDS011;63132;52.268;5.192;2022-12-18T09:52:45;36.30;;;23.42;;
74626;SDS011;63132;52.268;5.192;2022-12-18T09:57:51;35.08;;;22.33;;
74626;SDS011;63132;52.268;5.192;2022-12-18T10:00:21;35.95;;;22.67;;
74626;SDS011;63132;52.268;5.192;2022-12-18T10:02:48;36.60;;;23.50;;
74626;SDS011;63132;52.268;5.192;2022-12-18T10:05:17;34.10;;;22.08;;
74626;SDS011;63132;52.268;5.192;2022-12-18T10:07:55;33.30;;;21.65;;
74626;SDS011;63132;52.268;5.192;2022-12-18T10:13:05;35.50;;;21.17;;
74626;SDS011;63132;52.268;5.192;2022-12-18T10:27:14;33.50;;;20.38;;
74626;SDS011;63132;52.268;5.192;2022-12-18T10:29:44;29.67;;;19.13;;
74626;SDS011;63132;52.268;5.192;2022-12-18T10:32:15;32.05;;;20.02;;
74626;SDS011;63132;52.268;5.192;2022-12-18T10:34:45;30.25;;;18.85;;
74626;SDS011;63132;52.268;5.192;2022-12-18T10:37:15;32.60;;;19.98;;
74626;SDS011;63132;52.268;5.192;2022-12-18T10:39:43;29.55;;;18.60;;
74626;SDS011;63132;52.268;5.192;2022-12-18T10:42:18;31.53;;;19.23;;
74626;SDS011;63132;52.268;5.192;2022-12-18T10:44:44;32.15;;;19.30;;
74626;SDS011;63132;52.268;5.192;2022-12-18T10:47:17;31.37;;;19.43;;
74626;SDS011;63132;52.268;5.192;2022-12-18T10:49:50;30.03;;;17.73;;
74626;SDS011;63132;52.268;5.192;2022-12-18T10:52:23;28.05;;;17.85;;
74626;SDS011;63132;52.268;5.192;2022-12-18T10:55:01;28.60;;;18.00;;
74626;SDS011;63132;52.268;5.192;2022-12-18T10:57:38;29.15;;;17.52;;
74626;SDS011;63132;52.268;5.192;2022-12-18T11:00:22;27.98;;;17.25;;
74626;SDS011;63132;52.268;5.192;2022-12-18T11:02:53;28.50;;;17.83;;
74626;SDS011;63132;52.268;5.192;2022-12-18T11:07:55;26.50;;;17.10;;
74626;SDS011;63132;52.268;5.192;2022-12-18T11:10:22;26.80;;;16.15;;
74626;SDS011;63132;52.268;5.192;2022-12-18T11:12:53;26.65;;;17.42;;
74626;SDS011;63132;52.268;5.192;2022-12-18T11:15:20;29.33;;;17.97;;
74626;SDS011;63132;52.268;5.192;2022-12-18T11:17:48;26.23;;;16.33;;
74626;SDS011;63132;52.268;5.192;2022-12-18T11:22:59;24.95;;;16.75;;
74626;SDS011;63132;52.268;5.192;2022-12-18T11:25:27;25.70;;;16.63;;
74626;SDS011;63132;52.268;5.192;2022-12-18T11:27:58;25.88;;;16.35;;
74626;SDS011;63132;52.268;5.192;2022-12-18T11:30:27;23.92;;;15.45;;
74626;SDS011;63132;52.268;5.192;2022-12-18T11:33:01;25.58;;;16.80;;
74626;SDS011;63132;52.268;5.192;2022-12-18T11:38:06;23.93;;;16.13;;
74626;SDS011;63132;52.268;5.192;2022-12-18T11:40:40;27.27;;;16.58;;
74626;SDS011;63132;52.268;5.192;2022-12-18T11:43:16;24.95;;;15.73;;
74626;SDS011;63132;52.268;5.192;2022-12-18T11:45:52;26.03;;;16.27;;
74626;SDS011;63132;52.268;5.192;2022-12-18T11:51:09;24.20;;;15.18;;
74626;SDS011;63132;52.268;5.192;2022-12-18T11:53:39;25.25;;;16.55;;
74626;SDS011;63132;52.268;5.192;2022-12-18T11:59:08;26.13;;;16.70;;
74626;SDS011;63132;52.268;5.192;2022-12-18T12:01:48;24.52;;;15.75;;
74626;SDS011;63132;52.268;5.192;2022-12-18T12:10:06;28.75;;;15.82;;
74626;SDS011;63132;52.268;5.192;2022-12-18T12:21:09;24.35;;;15.82;;
74626;SDS011;63132;52.268;5.192;2022-12-18T12:23:51;24.45;;;15.85;;
74626;SDS011;63132;52.268;5.192;2022-12-18T12:26:30;24.10;;;15.43;;
74626;SDS011;63132;52.268;5.192;2022-12-18T12:29:09;24.52;;;15.35;;
74626;SDS011;63132;52.268;5.192;2022-12-18T12:32:00;25.07;;;15.50;;
74626;SDS011;63132;52.268;5.192;2022-12-18T12:40:31;23.20;;;15.75;;
74626;SDS011;63132;52.268;5.192;2022-12-18T12:43:08;24.55;;;15.32;;
74626;SDS011;63132;52.268;5.192;2022-12-18T12:51:15;22.98;;;15.40;;
74626;SDS011;63132;52.268;5.192;2022-12-18T12:53:46;25.63;;;16.87;;
74626;SDS011;63132;52.268;5.192;2022-12-18T12:56:13;25.75;;;15.80;;
74626;SDS011;63132;52.268;5.192;2022-12-18T13:03:46;23.77;;;15.15;;
74626;SDS011;63132;52.268;5.192;2022-12-18T13:06:22;24.48;;;15.07;;
74626;SDS011;63132;52.268;5.192;2022-12-18T13:09:00;23.42;;;15.40;;
74626;SDS011;63132;52.268;5.192;2022-12-18T13:11:42;25.00;;;15.23;;
74626;SDS011;63132;52.268;5.192;2022-12-18T13:14:32;25.50;;;15.20;;
74626;SDS011;63132;52.268;5.192;2022-12-18T13:22:37;26.85;;;16.38;;
74626;SDS011;63132;52.268;5.192;2022-12-18T13:25:26;23.45;;;14.80;;
74626;SDS011;63132;52.268;5.192;2022-12-18T13:35:38;26.83;;;16.30;;
74626;SDS011;63132;52.268;5.192;2022-12-18T13:38:22;26.17;;;16.17;;
74626;SDS011;63132;52.268;5.192;2022-12-18T13:46:04;27.35;;;17.00;;
74626;SDS011;63132;52.268;5.192;2022-12-18T13:48:51;26.57;;;16.97;;
74626;SDS011;63132;52.268;5.192;2022-12-18T13:51:20;25.67;;;17.33;;
74626;SDS011;63132;52.268;5.192;2022-12-18T13:53:48;27.13;;;17.30;;
74626;SDS011;63132;52.268;5.192;2022-12-18T13:56:17;26.90;;;17.15;;
74626;SDS011;63132;52.268;5.192;2022-12-18T13:58:46;27.02;;;17.48;;
74626;SDS011;63132;52.268;5.192;2022-12-18T14:01:27;28.20;;;17.63;;
74626;SDS011;63132;52.268;5.192;2022-12-18T14:04:08;27.10;;;17.27;;
74626;SDS011;63132;52.268;5.192;2022-12-18T14:06:35;28.92;;;17.10;;
74626;SDS011;63132;52.268;5.192;2022-12-18T14:09:00;27.67;;;17.10;;
74626;SDS011;63132;52.268;5.192;2022-12-18T14:11:27;29.07;;;18.17;;
74626;SDS011;63132;52.268;5.192;2022-12-18T14:13:52;29.97;;;19.50;;
74626;SDS011;63132;52.268;5.192;2022-12-18T14:16:18;29.30;;;18.80;;
74626;SDS011;63132;52.268;5.192;2022-12-18T14:21:15;28.30;;;17.67;;
74626;SDS011;63132;52.268;5.192;2022-12-18T14:23:44;29.02;;;17.33;;
74626;SDS011;63132;52.268;5.192;2022-12-18T14:26:20;26.10;;;17.37;;
74626;SDS011;63132;52.268;5.192;2022-12-18T14:28:48;27.50;;;17.35;;
74626;SDS011;63132;52.268;5.192;2022-12-18T14:31:21;31.63;;;17.87;;
74626;SDS011;63132;52.268;5.192;2022-12-18T14:33:48;27.50;;;16.83;;
74626;SDS011;63132;52.268;5.192;2022-12-18T14:36:16;26.80;;;16.95;;
74626;SDS011;63132;52.268;5.192;2022-12-18T14:38:42;27.60;;;18.25;;
74626;SDS011;63132;52.268;5.192;2022-12-18T14:41:13;30.53;;;17.80;;
74626;SDS011;63132;52.268;5.192;2022-12-18T14:43:41;29.45;;;17.80;;
74626;SDS011;63132;52.268;5.192;2022-12-18T14:46:28;26.87;;;17.23;;
74626;SDS011;63132;52.268;5.192;2022-12-18T14:48:57;27.00;;;16.35;;
74626;SDS011;63132;52.268;5.192;2022-12-18T14:51:25;27.88;;;17.50;;
74626;SDS011;63132;52.268;5.192;2022-12-18T14:56:29;25.43;;;16.73;;
74626;SDS011;63132;52.268;5.192;2022-12-18T14:59:03;27.63;;;18.13;;
74626;SDS011;63132;52.268;5.192;2022-12-18T15:01:37;28.40;;;17.58;;
74626;SDS011;63132;52.268;5.192;2022-12-18T15:07:02;27.07;;;17.40;;
74626;SDS011;63132;52.268;5.192;2022-12-18T15:09:34;27.08;;;16.90;;
74626;SDS011;63132;52.268;5.192;2022-12-18T15:12:02;26.15;;;17.10;;
74626;SDS011;63132;52.268;5.192;2022-12-18T15:15:00;24.87;;;15.90;;
74626;SDS011;63132;52.268;5.192;2022-12-18T15:17:22;27.95;;;17.15;;
74626;SDS011;63132;52.268;5.192;2022-12-18T15:19:50;26.50;;;16.30;;
74626;SDS011;63132;52.268;5.192;2022-12-18T15:22:30;29.92;;;17.63;;
74626;SDS011;63132;52.268;5.192;2022-12-18T15:24:59;26.85;;;17.30;;
74626;SDS011;63132;52.268;5.192;2022-12-18T15:27:32;27.87;;;17.00;;
74626;SDS011;63132;52.268;5.192;2022-12-18T15:32:37;26.77;;;17.33;;
74626;SDS011;63132;52.268;5.192;2022-12-18T15:37:35;29.35;;;17.27;;
74626;SDS011;63132;52.268;5.192;2022-12-18T15:40:01;31.48;;;18.58;;
74626;SDS011;63132;52.268;5.192;2022-12-18T15:42:27;24.90;;;17.20;;
74626;SDS011;63132;52.268;5.192;2022-12-18T15:45:12;31.20;;;18.08;;
74626;SDS011;63132;52.268;5.192;2022-12-18T15:47:39;26.42;;;17.10;;
74626;SDS011;63132;52.268;5.192;2022-12-18T15:50:05;29.23;;;17.73;;
74626;SDS011;63132;52.268;5.192;2022-12-18T15:52:38;28.98;;;17.15;;
74626;SDS011;63132;52.268;5.192;2022-12-18T15:55:19;26.73;;;17.27;;
74626;SDS011;63132;52.268;5.192;2022-12-18T15:58:05;27.33;;;17.55;;
74626;SDS011;63132;52.268;5.192;2022-12-18T16:00:36;29.65;;;18.25;;
74626;SDS011;63132;52.268;5.192;2022-12-18T16:03:04;29.83;;;17.63;;
74626;SDS011;63132;52.268;5.192;2022-12-18T16:05:29;31.20;;;18.70;;
74626;SDS011;63132;52.268;5.192;2022-12-18T16:07:55;29.35;;;18.88;;
74626;SDS011;63132;52.268;5.192;2022-12-18T16:10:21;27.55;;;18.23;;
74626;SDS011;63132;52.268;5.192;2022-12-18T16:12:46;30.55;;;17.77;;
74626;SDS011;63132;52.268;5.192;2022-12-18T16:15:13;29.90;;;17.85;;
74626;SDS011;63132;52.268;5.192;2022-12-18T16:17:40;30.55;;;19.05;;
74626;SDS011;63132;52.268;5.192;2022-12-18T16:20:14;30.27;;;18.83;;
74626;SDS011;63132;52.268;5.192;2022-12-18T16:22:41;30.00;;;17.75;;
74626;SDS011;63132;52.268;5.192;2022-12-18T16:25:21;29.25;;;18.70;;
74626;SDS011;63132;52.268;5.192;2022-12-18T16:27:51;28.40;;;18.50;;
74626;SDS011;63132;52.268;5.192;2022-12-18T16:30:21;31.15;;;18.42;;
74626;SDS011;63132;52.268;5.192;2022-12-18T16:32:52;27.17;;;17.25;;
74626;SDS011;63132;52.268;5.192;2022-12-18T16:35:18;32.47;;;18.95;;
74626;SDS011;63132;52.268;5.192;2022-12-18T16:37:44;28.57;;;17.73;;